sensor_id;sensor_type;location;lat;lon;timestamp;pressure;altitude;pressure_sealevel;temperature;humidity
70555;BME280;58104;52.744;15.242;2023-04-26T00:00:42;100423.47;;;18.38;37.36
70555;BME280;58104;52.744;15.242;2023-04-26T00:03:06;100423.26;;;18.32;37.40
70555;BME280;58104;52.744;15.242;2023-04-26T00:05:31;100422.37;;;18.40;37.33
70555;BME280;58104;52.744;15.242;2023-04-26T00:07:57;100421.28;;;18.37;37.49
70555;BME280;58104;52.744;15.242;2023-04-26T00:10:22;100428.71;;;18.38;37.52
70555;BME280;58104;52.744;15.242;2023-04-26T00:12:48;100423.08;;;18.40;37.70
70555;BME280;58104;52.744;15.242;2023-04-26T00:15:13;100424.73;;;18.45;37.90
70555;BME280;58104;52.744;15.242;2023-04-26T00:17:38;100427.81;;;18.47;38.06
70555;BME280;58104;52.744;15.242;2023-04-26T00:20:05;100427.87;;;18.47;38.34
70555;BME280;58104;52.744;15.242;2023-04-26T00:22:29;100432.63;;;18.43;38.35
70555;BME280;58104;52.744;15.242;2023-04-26T00:24:55;100434.15;;;18.58;38.45
70555;BME280;58104;52.744;15.242;2023-04-26T00:27:20;100432.46;;;18.41;38.68
70555;BME280;58104;52.744;15.242;2023-04-26T00:29:46;100437.79;;;18.50;38.66
70555;BME280;58104;52.744;15.242;2023-04-26T00:32:11;100433.34;;;18.39;39.05
70555;BME280;58104;52.744;15.242;2023-04-26T00:34:37;100432.07;;;18.34;39.23
70555;BME280;58104;52.744;15.242;2023-04-26T00:37:03;100438.45;;;18.67;39.07
70555;BME280;58104;52.744;15.242;2023-04-26T00:39:27;100438.49;;;18.54;39.22
70555;BME280;58104;52.744;15.242;2023-04-26T00:41:53;100435.87;;;18.68;39.47
70555;BME280;58104;52.744;15.242;2023-04-26T00:44:18;100435.29;;;18.65;39.50
70555;BME280;58104;52.744;15.242;2023-04-26T00:46:44;100445.93;;;18.52;39.67
70555;BME280;58104;52.744;15.242;2023-04-26T00:49:10;100439.64;;;18.63;39.41
70555;BME280;58104;52.744;15.242;2023-04-26T00:51:35;100441.95;;;18.57;40.07
70555;BME280;58104;52.744;15.242;2023-04-26T00:54:00;100445.14;;;18.54;40.31
70555;BME280;58104;52.744;15.242;2023-04-26T00:56:25;100448.53;;;18.52;40.55
70555;BME280;58104;52.744;15.242;2023-04-26T00:58:51;100447.12;;;18.56;40.60
70555;BME280;58104;52.744;15.242;2023-04-26T01:01:16;100439.97;;;18.47;41.00
70555;BME280;58104;52.744;15.242;2023-04-26T01:03:42;100446.39;;;18.49;41.10
70555;BME280;58104;52.744;15.242;2023-04-26T01:06:07;100455.32;;;18.62;41.13
70555;BME280;58104;52.744;15.242;2023-04-26T01:08:32;100450.05;;;18.70;40.93
70555;BME280;58104;52.744;15.242;2023-04-26T01:10:58;100452.01;;;18.69;41.07
70555;BME280;58104;52.744;15.242;2023-04-26T01:13:24;100449.83;;;18.61;41.34
70555;BME280;58104;52.744;15.242;2023-04-26T01:15:49;100448.99;;;18.68;41.54
70555;BME280;58104;52.744;15.242;2023-04-26T01:18:14;100450.19;;;18.53;41.80
70555;BME280;58104;52.744;15.242;2023-04-26T01:20:40;100455.76;;;18.54;41.76
70555;BME280;58104;52.744;15.242;2023-04-26T01:23:05;100453.38;;;18.62;41.80
70555;BME280;58104;52.744;15.242;2023-04-26T01:25:30;100455.87;;;18.72;41.84
70555;BME280;58104;52.744;15.242;2023-04-26T01:27:56;100451.20;;;18.83;41.61
70555;BME280;58104;52.744;15.242;2023-04-26T01:30:21;100453.25;;;18.78;41.61
70555;BME280;58104;52.744;15.242;2023-04-26T01:32:47;100448.69;;;18.72;41.74
70555;BME280;58104;52.744;15.242;2023-04-26T01:35:12;100452.36;;;18.66;42.03
70555;BME280;58104;52.744;15.242;2023-04-26T01:37:37;100454.44;;;18.58;42.14
70555;BME280;58104;52.744;15.242;2023-04-26T01:40:04;100453.19;;;18.65;41.98
70555;BME280;58104;52.744;15.242;2023-04-26T01:42:28;100459.88;;;18.71;41.96
70555;BME280;58104;52.744;15.242;2023-04-26T01:44:54;100452.10;;;18.60;42.03
70555;BME280;58104;52.744;15.242;2023-04-26T01:47:19;100458.40;;;18.67;42.13
70555;BME280;58104;52.744;15.242;2023-04-26T01:49:45;100459.76;;;18.52;42.10
70555;BME280;58104;52.744;15.242;2023-04-26T01:52:10;100457.17;;;18.66;41.92
70555;BME280;58104;52.744;15.242;2023-04-26T01:54:35;100461.39;;;18.63;42.11
70555;BME280;58104;52.744;15.242;2023-04-26T01:57:01;100460.88;;;18.60;42.00
70555;BME280;58104;52.744;15.242;2023-04-26T01:59:26;100461.70;;;18.59;42.25
70555;BME280;58104;52.744;15.242;2023-04-26T02:01:52;100458.21;;;18.58;42.70
70555;BME280;58104;52.744;15.242;2023-04-26T02:04:17;100459.26;;;18.43;42.71
70555;BME280;58104;52.744;15.242;2023-04-26T02:06:43;100457.89;;;18.58;42.68
70555;BME280;58104;52.744;15.242;2023-04-26T02:09:08;100459.86;;;18.63;42.45
70555;BME280;58104;52.744;15.242;2023-04-26T02:11:34;100463.44;;;18.65;42.48
70555;BME280;58104;52.744;15.242;2023-04-26T02:13:59;100461.48;;;18.72;42.47
70555;BME280;58104;52.744;15.242;2023-04-26T02:16:24;100460.16;;;18.64;42.56
70555;BME280;58104;52.744;15.242;2023-04-26T02:18:50;100457.80;;;18.65;42.70
70555;BME280;58104;52.744;15.242;2023-04-26T02:21:16;100463.15;;;18.67;42.68
70555;BME280;58104;52.744;15.242;2023-04-26T02:23:41;100463.99;;;18.57;42.75
70555;BME280;58104;52.744;15.242;2023-04-26T02:26:06;100462.36;;;18.62;42.68
70555;BME280;58104;52.744;15.242;2023-04-26T02:28:31;100450.46;;;18.63;42.65
70555;BME280;58104;52.744;15.242;2023-04-26T02:30:57;100458.99;;;18.61;42.79
70555;BME280;58104;52.744;15.242;2023-04-26T02:33:22;100457.76;;;18.62;42.73
70555;BME280;58104;52.744;15.242;2023-04-26T02:35:48;100456.28;;;18.57;42.64
70555;BME280;58104;52.744;15.242;2023-04-26T02:38:13;100457.51;;;18.46;43.22
70555;BME280;58104;52.744;15.242;2023-04-26T02:40:39;100459.48;;;18.49;43.21
70555;BME280;58104;52.744;15.242;2023-04-26T02:43:04;100453.54;;;18.50;43.34
70555;BME280;58104;52.744;15.242;2023-04-26T02:45:29;100457.95;;;18.60;43.36
70555;BME280;58104;52.744;15.242;2023-04-26T02:47:55;100460.13;;;18.67;43.46
70555;BME280;58104;52.744;15.242;2023-04-26T02:50:21;100460.58;;;18.67;43.40
70555;BME280;58104;52.744;15.242;2023-04-26T02:52:46;100463.55;;;18.74;43.68
70555;BME280;58104;52.744;15.242;2023-04-26T02:55:11;100464.49;;;18.78;43.81
70555;BME280;58104;52.744;15.242;2023-04-26T02:57:37;100461.13;;;18.62;44.17
70555;BME280;58104;52.744;15.242;2023-04-26T03:00:03;100448.75;;;18.70;44.35
70555;BME280;58104;52.744;15.242;2023-04-26T03:02:27;100452.76;;;18.58;44.61
70555;BME280;58104;52.744;15.242;2023-04-26T03:04:54;100449.45;;;18.49;44.93
70555;BME280;58104;52.744;15.242;2023-04-26T03:07:18;100457.26;;;18.57;44.92
70555;BME280;58104;52.744;15.242;2023-04-26T03:09:44;100459.85;;;18.48;44.94
70555;BME280;58104;52.744;15.242;2023-04-26T03:12:09;100456.40;;;18.56;44.96
70555;BME280;58104;52.744;15.242;2023-04-26T03:14:35;100460.37;;;18.64;44.92
70555;BME280;58104;52.744;15.242;2023-04-26T03:17:00;100459.40;;;18.57;44.95
70555;BME280;58104;52.744;15.242;2023-04-26T03:19:25;100459.04;;;18.59;45.11
70555;BME280;58104;52.744;15.242;2023-04-26T03:21:51;100451.61;;;18.66;45.25
70555;BME280;58104;52.744;15.242;2023-04-26T03:24:16;100456.40;;;18.93;46.94
70555;BME280;58104;52.744;15.242;2023-04-26T03:26:42;100452.08;;;18.93;47.16
70555;BME280;58104;52.744;15.242;2023-04-26T03:29:07;100457.86;;;18.73;46.32
70555;BME280;58104;52.744;15.242;2023-04-26T03:31:33;100457.62;;;18.56;45.55
70555;BME280;58104;52.744;15.242;2023-04-26T03:33:58;100465.50;;;18.53;44.98
70555;BME280;58104;52.744;15.242;2023-04-26T03:36:23;100459.76;;;18.53;44.53
70555;BME280;58104;52.744;15.242;2023-04-26T03:38:49;100465.96;;;18.52;43.92
70555;BME280;58104;52.744;15.242;2023-04-26T03:41:14;100465.33;;;18.44;43.59
70555;BME280;58104;52.744;15.242;2023-04-26T03:43:40;100470.15;;;18.53;43.15
70555;BME280;58104;52.744;15.242;2023-04-26T03:46:05;100468.31;;;18.44;42.74
70555;BME280;58104;52.744;15.242;2023-04-26T03:48:30;100473.00;;;18.39;42.55
70555;BME280;58104;52.744;15.242;2023-04-26T03:50:56;100474.53;;;18.40;42.29
70555;BME280;58104;52.744;15.242;2023-04-26T03:53:21;100477.94;;;18.46;41.67
70555;BME280;58104;52.744;15.242;2023-04-26T03:55:47;100477.12;;;18.66;41.40
70555;BME280;58104;52.744;15.242;2023-04-26T03:58:12;100476.12;;;18.23;38.58
70555;BME280;58104;52.744;15.242;2023-04-26T04:00:38;100483.73;;;17.86;38.45
70555;BME280;58104;52.744;15.242;2023-04-26T04:03:03;100479.16;;;17.48;37.92
70555;BME280;58104;52.744;15.242;2023-04-26T04:05:29;100485.79;;;17.42;37.48
70555;BME280;58104;52.744;15.242;2023-04-26T04:07:54;100481.22;;;17.44;37.38
70555;BME280;58104;52.744;15.242;2023-04-26T04:10:19;100488.58;;;17.37;37.20
70555;BME280;58104;52.744;15.242;2023-04-26T04:12:45;100492.33;;;17.42;37.42
70555;BME280;58104;52.744;15.242;2023-04-26T04:15:10;100490.12;;;17.32;37.01
70555;BME280;58104;52.744;15.242;2023-04-26T04:17:36;100497.31;;;17.43;37.31
70555;BME280;58104;52.744;15.242;2023-04-26T04:20:01;100498.42;;;17.56;37.55
70555;BME280;58104;52.744;15.242;2023-04-26T04:22:26;100498.71;;;17.38;37.77
70555;BME280;58104;52.744;15.242;2023-04-26T04:24:51;100504.13;;;17.39;38.62
70555;BME280;58104;52.744;15.242;2023-04-26T04:27:17;100502.61;;;17.40;38.10
70555;BME280;58104;52.744;15.242;2023-04-26T04:29:42;100498.14;;;17.17;36.07
70555;BME280;58104;52.744;15.242;2023-04-26T04:32:08;100495.92;;;16.47;35.77
70555;BME280;58104;52.744;15.242;2023-04-26T04:34:34;100512.09;;;16.06;37.49
70555;BME280;58104;52.744;15.242;2023-04-26T04:36:59;100505.86;;;15.96;37.45
70555;BME280;58104;52.744;15.242;2023-04-26T04:39:24;100512.17;;;15.92;37.33
70555;BME280;58104;52.744;15.242;2023-04-26T04:41:50;100509.46;;;15.95;36.56
70555;BME280;58104;52.744;15.242;2023-04-26T04:44:16;100507.89;;;15.67;36.47
70555;BME280;58104;52.744;15.242;2023-04-26T04:46:41;100520.57;;;15.31;37.20
70555;BME280;58104;52.744;15.242;2023-04-26T04:49:06;100528.61;;;15.23;37.18
70555;BME280;58104;52.744;15.242;2023-04-26T04:51:32;100516.61;;;15.08;37.48
70555;BME280;58104;52.744;15.242;2023-04-26T04:53:57;100521.39;;;15.41;40.46
70555;BME280;58104;52.744;15.242;2023-04-26T04:56:23;100527.24;;;15.70;38.47
70555;BME280;58104;52.744;15.242;2023-04-26T04:58:48;100530.46;;;16.05;37.99
70555;BME280;58104;52.744;15.242;2023-04-26T05:01:13;100531.81;;;15.75;37.51
70555;BME280;58104;52.744;15.242;2023-04-26T05:03:39;100540.99;;;16.09;37.81
70555;BME280;58104;52.744;15.242;2023-04-26T05:06:05;100535.85;;;16.17;37.09
70555;BME280;58104;52.744;15.242;2023-04-26T05:08:29;100534.86;;;16.85;38.63
70555;BME280;58104;52.744;15.242;2023-04-26T05:10:55;100534.25;;;17.19;38.34
70555;BME280;58104;52.744;15.242;2023-04-26T05:13:20;100541.19;;;17.28;38.08
70555;BME280;58104;52.744;15.242;2023-04-26T05:15:46;100545.30;;;17.49;37.82
70555;BME280;58104;52.744;15.242;2023-04-26T05:18:11;100551.90;;;17.66;37.64
70555;BME280;58104;52.744;15.242;2023-04-26T05:20:37;100552.23;;;17.68;37.51
70555;BME280;58104;52.744;15.242;2023-04-26T05:23:02;100552.33;;;17.80;37.38
70555;BME280;58104;52.744;15.242;2023-04-26T05:25:27;100562.01;;;17.83;37.28
70555;BME280;58104;52.744;15.242;2023-04-26T05:27:53;100559.86;;;17.89;37.23
70555;BME280;58104;52.744;15.242;2023-04-26T05:30:18;100556.60;;;17.98;37.06
70555;BME280;58104;52.744;15.242;2023-04-26T05:32:44;100560.56;;;18.00;37.01
70555;BME280;58104;52.744;15.242;2023-04-26T05:35:09;100565.54;;;18.15;36.90
70555;BME280;58104;52.744;15.242;2023-04-26T05:37:35;100567.66;;;18.19;36.78
70555;BME280;58104;52.744;15.242;2023-04-26T05:40:00;100565.20;;;18.10;36.99
70555;BME280;58104;52.744;15.242;2023-04-26T05:42:25;100562.77;;;18.13;36.88
70555;BME280;58104;52.744;15.242;2023-04-26T05:44:56;100564.89;;;18.10;36.83
70555;BME280;58104;52.744;15.242;2023-04-26T05:47:16;100570.02;;;18.31;36.61
70555;BME280;58104;52.744;15.242;2023-04-26T05:49:41;100573.00;;;18.34;36.59
70555;BME280;58104;52.744;15.242;2023-04-26T05:52:07;100571.13;;;18.34;36.60
70555;BME280;58104;52.744;15.242;2023-04-26T05:54:33;100573.80;;;18.34;36.51
70555;BME280;58104;52.744;15.242;2023-04-26T05:56:58;100573.84;;;18.26;36.55
70555;BME280;58104;52.744;15.242;2023-04-26T05:59:23;100575.01;;;18.39;36.46
70555;BME280;58104;52.744;15.242;2023-04-26T06:01:48;100580.81;;;18.44;36.40
70555;BME280;58104;52.744;15.242;2023-04-26T06:04:14;100582.86;;;18.51;36.34
70555;BME280;58104;52.744;15.242;2023-04-26T06:06:39;100588.98;;;18.45;36.35
70555;BME280;58104;52.744;15.242;2023-04-26T06:09:05;100582.75;;;18.45;36.27
70555;BME280;58104;52.744;15.242;2023-04-26T06:11:30;100594.06;;;18.54;36.19
70555;BME280;58104;52.744;15.242;2023-04-26T06:13:56;100589.42;;;18.57;36.22
70555;BME280;58104;52.744;15.242;2023-04-26T06:16:21;100582.41;;;18.56;36.32
70555;BME280;58104;52.744;15.242;2023-04-26T06:18:47;100598.81;;;18.59;36.26
70555;BME280;58104;52.744;15.242;2023-04-26T06:21:12;100593.69;;;18.61;36.21
70555;BME280;58104;52.744;15.242;2023-04-26T06:23:38;100592.06;;;18.65;36.19
70555;BME280;58104;52.744;15.242;2023-04-26T06:26:03;100591.14;;;18.49;36.27
70555;BME280;58104;52.744;15.242;2023-04-26T06:28:29;100591.11;;;18.54;35.98
70555;BME280;58104;52.744;15.242;2023-04-26T06:30:54;100594.17;;;18.61;36.10
70555;BME280;58104;52.744;15.242;2023-04-26T06:33:19;100586.28;;;18.61;36.09
70555;BME280;58104;52.744;15.242;2023-04-26T06:35:45;100591.75;;;18.52;36.22
70555;BME280;58104;52.744;15.242;2023-04-26T06:38:10;100586.68;;;18.51;36.08
70555;BME280;58104;52.744;15.242;2023-04-26T06:40:35;100601.37;;;18.46;36.26
70555;BME280;58104;52.744;15.242;2023-04-26T06:43:01;100594.47;;;18.47;36.09
70555;BME280;58104;52.744;15.242;2023-04-26T06:45:26;100594.54;;;18.54;36.17
70555;BME280;58104;52.744;15.242;2023-04-26T06:47:52;100596.86;;;18.64;36.18
70555;BME280;58104;52.744;15.242;2023-04-26T06:50:17;100592.68;;;18.71;35.95
70555;BME280;58104;52.744;15.242;2023-04-26T06:52:43;100608.30;;;18.66;35.96
70555;BME280;58104;52.744;15.242;2023-04-26T06:55:09;100607.28;;;18.69;35.93
70555;BME280;58104;52.744;15.242;2023-04-26T06:57:34;100607.57;;;18.66;35.75
70555;BME280;58104;52.744;15.242;2023-04-26T06:59:59;100608.92;;;18.73;35.72
70555;BME280;58104;52.744;15.242;2023-04-26T07:02:24;100612.23;;;18.89;35.47
70555;BME280;58104;52.744;15.242;2023-04-26T07:04:50;100611.95;;;18.86;35.24
70555;BME280;58104;52.744;15.242;2023-04-26T07:07:15;100612.96;;;19.01;35.17
70555;BME280;58104;52.744;15.242;2023-04-26T07:09:41;100621.37;;;18.98;35.19
70555;BME280;58104;52.744;15.242;2023-04-26T07:12:06;100612.62;;;19.16;34.83
70555;BME280;58104;52.744;15.242;2023-04-26T07:14:32;100613.13;;;19.12;34.60
70555;BME280;58104;52.744;15.242;2023-04-26T07:16:57;100616.33;;;19.09;34.64
70555;BME280;58104;52.744;15.242;2023-04-26T07:19:22;100623.08;;;19.37;34.20
70555;BME280;58104;52.744;15.242;2023-04-26T07:21:48;100620.89;;;19.54;34.12
70555;BME280;58104;52.744;15.242;2023-04-26T07:24:13;100618.22;;;19.59;34.11
70555;BME280;58104;52.744;15.242;2023-04-26T07:26:39;100620.72;;;19.64;33.98
70555;BME280;58104;52.744;15.242;2023-04-26T07:29:04;100622.41;;;19.56;34.05
70555;BME280;58104;52.744;15.242;2023-04-26T07:31:35;100623.63;;;19.62;33.78
70555;BME280;58104;52.744;15.242;2023-04-26T07:33:55;100623.63;;;19.78;33.52
70555;BME280;58104;52.744;15.242;2023-04-26T07:36:20;100621.84;;;19.90;33.22
70555;BME280;58104;52.744;15.242;2023-04-26T07:38:46;100633.64;;;19.97;33.11
70555;BME280;58104;52.744;15.242;2023-04-26T07:41:11;100622.87;;;19.77;33.26
70555;BME280;58104;52.744;15.242;2023-04-26T07:43:37;100633.76;;;20.00;32.77
70555;BME280;58104;52.744;15.242;2023-04-26T07:46:02;100626.07;;;20.20;32.38
70555;BME280;58104;52.744;15.242;2023-04-26T07:48:28;100619.90;;;20.31;32.24
70555;BME280;58104;52.744;15.242;2023-04-26T07:50:53;100626.91;;;20.28;32.18
70555;BME280;58104;52.744;15.242;2023-04-26T07:53:18;100639.53;;;20.53;32.03
70555;BME280;58104;52.744;15.242;2023-04-26T07:55:44;100637.96;;;20.44;32.14
70555;BME280;58104;52.744;15.242;2023-04-26T07:58:09;100639.14;;;20.35;31.98
70555;BME280;58104;52.744;15.242;2023-04-26T08:00:34;100635.58;;;20.56;31.80
70555;BME280;58104;52.744;15.242;2023-04-26T08:03:00;100640.83;;;20.35;32.02
70555;BME280;58104;52.744;15.242;2023-04-26T08:05:25;100643.24;;;20.35;32.03
70555;BME280;58104;52.744;15.242;2023-04-26T08:07:51;100644.12;;;20.42;32.07
70555;BME280;58104;52.744;15.242;2023-04-26T08:10:16;100644.80;;;20.38;32.30
70555;BME280;58104;52.744;15.242;2023-04-26T08:12:41;100643.06;;;20.36;32.30
70555;BME280;58104;52.744;15.242;2023-04-26T08:15:08;100636.38;;;20.41;32.16
70555;BME280;58104;52.744;15.242;2023-04-26T08:17:33;100639.61;;;20.50;32.17
70555;BME280;58104;52.744;15.242;2023-04-26T08:19:58;100641.12;;;20.45;32.23
70555;BME280;58104;52.744;15.242;2023-04-26T08:22:23;100640.39;;;20.57;32.09
70555;BME280;58104;52.744;15.242;2023-04-26T08:24:49;100643.05;;;20.67;31.93
70555;BME280;58104;52.744;15.242;2023-04-26T08:27:14;100645.24;;;20.76;31.72
70555;BME280;58104;52.744;15.242;2023-04-26T08:29:39;100646.85;;;20.72;31.65
70555;BME280;58104;52.744;15.242;2023-04-26T08:32:05;100641.21;;;20.69;31.73
70555;BME280;58104;52.744;15.242;2023-04-26T08:34:30;100647.96;;;20.64;31.62
70555;BME280;58104;52.744;15.242;2023-04-26T08:36:56;100647.76;;;20.70;31.75
70555;BME280;58104;52.744;15.242;2023-04-26T08:39:21;100648.79;;;20.70;31.71
70555;BME280;58104;52.744;15.242;2023-04-26T08:41:50;100650.52;;;20.68;31.80
70555;BME280;58104;52.744;15.242;2023-04-26T08:44:12;100654.24;;;20.70;31.73
70555;BME280;58104;52.744;15.242;2023-04-26T08:46:44;100654.61;;;20.67;31.85
70555;BME280;58104;52.744;15.242;2023-04-26T08:49:12;100645.66;;;20.62;32.06
70555;BME280;58104;52.744;15.242;2023-04-26T08:51:28;100653.68;;;20.83;31.74
70555;BME280;58104;52.744;15.242;2023-04-26T08:53:54;100656.48;;;21.02;31.42
70555;BME280;58104;52.744;15.242;2023-04-26T08:56:21;100645.44;;;21.04;31.29
70555;BME280;58104;52.744;15.242;2023-04-26T08:58:44;100648.86;;;20.95;31.38
70555;BME280;58104;52.744;15.242;2023-04-26T09:01:14;100653.73;;;20.92;31.59
70555;BME280;58104;52.744;15.242;2023-04-26T09:03:35;100652.04;;;20.78;31.51
70555;BME280;58104;52.744;15.242;2023-04-26T09:06:00;100653.30;;;20.96;31.50
70555;BME280;58104;52.744;15.242;2023-04-26T09:08:26;100654.24;;;20.93;31.32
70555;BME280;58104;52.744;15.242;2023-04-26T09:10:51;100652.50;;;20.94;31.21
70555;BME280;58104;52.744;15.242;2023-04-26T09:13:17;100656.76;;;20.89;31.12
70555;BME280;58104;52.744;15.242;2023-04-26T09:15:42;100654.96;;;20.91;31.36
70555;BME280;58104;52.744;15.242;2023-04-26T09:18:16;100652.56;;;20.85;31.39
70555;BME280;58104;52.744;15.242;2023-04-26T09:20:33;100655.44;;;20.94;31.51
70555;BME280;58104;52.744;15.242;2023-04-26T09:23:04;100649.99;;;20.99;31.37
70555;BME280;58104;52.744;15.242;2023-04-26T09:25:28;100650.29;;;21.09;31.20
70555;BME280;58104;52.744;15.242;2023-04-26T09:27:49;100658.45;;;21.15;31.14
70555;BME280;58104;52.744;15.242;2023-04-26T09:30:16;100659.44;;;21.17;31.06
70555;BME280;58104;52.744;15.242;2023-04-26T09:32:46;100661.81;;;20.99;31.08
70555;BME280;58104;52.744;15.242;2023-04-26T09:35:06;100655.14;;;21.03;31.25
70555;BME280;58104;52.744;15.242;2023-04-26T09:37:31;100666.14;;;20.97;31.18
70555;BME280;58104;52.744;15.242;2023-04-26T09:39:56;100666.01;;;20.87;31.35
70555;BME280;58104;52.744;15.242;2023-04-26T09:42:22;100666.55;;;21.08;31.46
70555;BME280;58104;52.744;15.242;2023-04-26T09:44:47;100669.02;;;20.99;31.23
70555;BME280;58104;52.744;15.242;2023-04-26T09:47:13;100670.48;;;21.13;30.97
70555;BME280;58104;52.744;15.242;2023-04-26T09:49:43;100666.18;;;21.17;31.01
70555;BME280;58104;52.744;15.242;2023-04-26T09:52:04;100667.81;;;21.08;30.88
70555;BME280;58104;52.744;15.242;2023-04-26T09:54:38;100674.87;;;21.01;31.19
70555;BME280;58104;52.744;15.242;2023-04-26T09:56:59;100668.67;;;21.14;31.33
70555;BME280;58104;52.744;15.242;2023-04-26T09:59:20;100681.56;;;21.19;30.93
70555;BME280;58104;52.744;15.242;2023-04-26T10:01:45;100678.68;;;21.11;31.26
70555;BME280;58104;52.744;15.242;2023-04-26T10:04:10;100685.45;;;21.17;31.14
70555;BME280;58104;52.744;15.242;2023-04-26T10:06:36;100682.55;;;21.17;31.14
70555;BME280;58104;52.744;15.242;2023-04-26T10:09:01;100680.81;;;21.28;30.85
70555;BME280;58104;52.744;15.242;2023-04-26T10:11:27;100676.36;;;21.41;30.75
70555;BME280;58104;52.744;15.242;2023-04-26T10:13:52;100676.47;;;21.20;30.83
70555;BME280;58104;52.744;15.242;2023-04-26T10:16:19;100667.35;;;21.14;30.43
70555;BME280;58104;52.744;15.242;2023-04-26T10:18:43;100674.79;;;21.38;30.85
70555;BME280;58104;52.744;15.242;2023-04-26T10:21:15;100673.72;;;21.24;30.72
70555;BME280;58104;52.744;15.242;2023-04-26T10:23:34;100678.95;;;21.20;30.41
70555;BME280;58104;52.744;15.242;2023-04-26T10:25:59;100682.43;;;21.15;30.68
70555;BME280;58104;52.744;15.242;2023-04-26T10:30:54;100675.27;;;21.16;30.87
70555;BME280;58104;52.744;15.242;2023-04-26T10:33:16;100678.51;;;21.34;30.69
70555;BME280;58104;52.744;15.242;2023-04-26T10:38:08;100670.75;;;21.47;30.88
70555;BME280;58104;52.744;15.242;2023-04-26T10:40:33;100670.69;;;21.52;30.86
70555;BME280;58104;52.744;15.242;2023-04-26T10:45:25;100680.29;;;21.60;30.29
70555;BME280;58104;52.744;15.242;2023-04-26T10:47:48;100672.57;;;21.49;29.85
70555;BME280;58104;52.744;15.242;2023-04-26T10:50:13;100693.90;;;21.49;29.96
70555;BME280;58104;52.744;15.242;2023-04-26T10:55:05;100682.42;;;21.59;29.93
70555;BME280;58104;52.744;15.242;2023-04-26T11:04:51;100682.07;;;21.42;31.40
70555;BME280;58104;52.744;15.242;2023-04-26T11:07:12;100697.27;;;21.46;30.42
70555;BME280;58104;52.744;15.242;2023-04-26T11:09:38;100689.62;;;21.52;30.92
70555;BME280;58104;52.744;15.242;2023-04-26T11:12:04;100703.99;;;21.46;30.59
70555;BME280;58104;52.744;15.242;2023-04-26T11:14:28;100683.33;;;21.66;29.96
70555;BME280;58104;52.744;15.242;2023-04-26T11:16:53;100704.14;;;21.60;30.48
70555;BME280;58104;52.744;15.242;2023-04-26T11:19:18;100700.50;;;21.67;30.13
70555;BME280;58104;52.744;15.242;2023-04-26T11:21:44;100696.40;;;21.68;30.64
70555;BME280;58104;52.744;15.242;2023-04-26T11:24:09;100707.25;;;21.53;30.20
70555;BME280;58104;52.744;15.242;2023-04-26T11:26:34;100700.90;;;21.72;30.88
70555;BME280;58104;52.744;15.242;2023-04-26T11:29:00;100697.40;;;21.56;30.89
70555;BME280;58104;52.744;15.242;2023-04-26T11:31:25;100702.05;;;21.59;30.89
70555;BME280;58104;52.744;15.242;2023-04-26T11:33:51;100689.74;;;21.60;30.91
70555;BME280;58104;52.744;15.242;2023-04-26T11:36:16;100685.98;;;21.75;30.65
70555;BME280;58104;52.744;15.242;2023-04-26T11:38:42;100685.03;;;21.71;30.71
70555;BME280;58104;52.744;15.242;2023-04-26T11:41:07;100688.17;;;21.79;30.65
70555;BME280;58104;52.744;15.242;2023-04-26T11:43:35;100694.57;;;21.81;30.68
70555;BME280;58104;52.744;15.242;2023-04-26T11:45:58;100687.03;;;21.80;30.74
70555;BME280;58104;52.744;15.242;2023-04-26T11:48:23;100688.64;;;21.80;30.65
70555;BME280;58104;52.744;15.242;2023-04-26T11:50:49;100686.48;;;21.88;30.53
70555;BME280;58104;52.744;15.242;2023-04-26T11:53:14;100689.40;;;21.88;30.55
70555;BME280;58104;52.744;15.242;2023-04-26T11:55:39;100702.55;;;21.75;30.77
70555;BME280;58104;52.744;15.242;2023-04-26T11:58:09;100706.62;;;21.66;30.88
70555;BME280;58104;52.744;15.242;2023-04-26T12:00:30;100709.59;;;21.65;30.89
70555;BME280;58104;52.744;15.242;2023-04-26T12:02:56;100714.70;;;21.59;30.94
70555;BME280;58104;52.744;15.242;2023-04-26T12:05:23;100730.54;;;21.62;29.87
70555;BME280;58104;52.744;15.242;2023-04-26T12:07:49;100725.45;;;21.64;29.76
70555;BME280;58104;52.744;15.242;2023-04-26T12:10:14;100717.64;;;21.68;29.56
70555;BME280;58104;52.744;15.242;2023-04-26T12:12:43;100720.97;;;21.66;29.46
70555;BME280;58104;52.744;15.242;2023-04-26T12:15:08;100725.36;;;21.62;29.61
70555;BME280;58104;52.744;15.242;2023-04-26T12:17:28;100726.48;;;21.71;29.31
70555;BME280;58104;52.744;15.242;2023-04-26T12:19:54;100734.10;;;21.66;29.04
70555;BME280;58104;52.744;15.242;2023-04-26T12:22:20;100730.93;;;21.78;29.83
70555;BME280;58104;52.744;15.242;2023-04-26T12:24:44;100720.66;;;21.95;29.55
70555;BME280;58104;52.744;15.242;2023-04-26T12:27:19;100719.30;;;21.69;30.36
70555;BME280;58104;52.744;15.242;2023-04-26T12:29:35;100716.69;;;21.91;29.91
70555;BME280;58104;52.744;15.242;2023-04-26T12:32:01;100734.38;;;21.89;29.45
70555;BME280;58104;52.744;15.242;2023-04-26T12:34:26;100729.38;;;22.08;29.31
70555;BME280;58104;52.744;15.242;2023-04-26T12:36:51;100736.41;;;21.99;29.24
70555;BME280;58104;52.744;15.242;2023-04-26T12:39:17;100741.36;;;21.87;29.46
70555;BME280;58104;52.744;15.242;2023-04-26T12:41:43;100737.80;;;21.88;29.58
70555;BME280;58104;52.744;15.242;2023-04-26T12:44:08;100738.94;;;21.74;29.46
70555;BME280;58104;52.744;15.242;2023-04-26T12:46:33;100739.75;;;21.73;29.35